createdAt,value
2018-06-09T00:00:05.760Z,21.30
2018-06-09T00:02:34.532Z,21.30
2018-06-09T00:05:03.224Z,21.30
2018-06-09T00:07:31.775Z,21.30
2018-06-09T00:10:00.549Z,21.30
2018-06-09T00:12:29.164Z,21.20
2018-06-09T00:14:57.766Z,21.20
2018-06-09T00:17:26.518Z,21.20
2018-06-09T00:19:55.215Z,21.20
2018-06-09T00:22:23.729Z,21.10
2018-06-09T00:24:52.281Z,21.10
2018-06-09T00:27:20.952Z,21.10
2018-06-09T00:29:49.909Z,21.10
2018-06-09T00:32:18.730Z,21.10
2018-06-09T00:34:47.397Z,21.10
2018-06-09T00:37:16.119Z,21.10
2018-06-09T00:39:44.822Z,21.10
2018-06-09T00:42:13.511Z,21.10
2018-06-09T00:44:42.056Z,21.10
2018-06-09T00:47:10.641Z,21.10
2018-06-09T00:49:39.225Z,21.10
2018-06-09T00:52:07.865Z,21.00
2018-06-09T00:54:36.498Z,21.00
2018-06-09T00:57:05.037Z,21.00
2018-06-09T00:59:33.658Z,20.90
2018-06-09T01:02:02.221Z,20.90
2018-06-09T01:04:30.753Z,20.90
2018-06-09T01:06:59.510Z,20.90
2018-06-09T01:09:28.614Z,20.90
2018-06-09T01:11:57.393Z,20.90
2018-06-09T01:14:26.004Z,20.90
2018-06-09T01:16:54.540Z,20.90
2018-06-09T01:19:23.153Z,20.90
2018-06-09T01:21:51.767Z,20.90
2018-06-09T01:24:20.278Z,20.90
2018-06-09T01:26:48.893Z,20.90
2018-06-09T01:29:17.550Z,21.00
2018-06-09T01:31:46.116Z,21.10
2018-06-09T01:34:14.950Z,21.00
2018-06-09T01:36:43.483Z,21.10
2018-06-09T01:39:12.026Z,20.90
2018-06-09T01:41:40.700Z,20.80
2018-06-09T01:44:09.590Z,20.80
2018-06-09T01:46:38.118Z,20.80
2018-06-09T01:49:06.634Z,20.70
2018-06-09T01:51:35.190Z,20.70
2018-06-09T01:54:03.820Z,20.60
2018-06-09T01:56:32.502Z,20.60
2018-06-09T01:59:01.060Z,20.50
2018-06-09T02:01:29.680Z,20.50
2018-06-09T02:03:58.248Z,20.50
2018-06-09T02:06:26.892Z,20.50
2018-06-09T02:11:23.746Z,20.40
2018-06-09T02:13:52.274Z,20.40
2018-06-09T02:16:21.168Z,20.40
2018-06-09T02:18:49.954Z,20.40
2018-06-09T02:21:18.743Z,20.30
2018-06-09T02:23:47.320Z,20.30
2018-06-09T02:26:15.901Z,20.20
2018-06-09T02:28:44.795Z,20.20
2018-06-09T02:31:13.715Z,20.20
2018-06-09T02:33:42.308Z,20.10
2018-06-09T02:36:10.971Z,20.10
2018-06-09T02:38:39.760Z,20.10
2018-06-09T02:41:08.327Z,20.00
2018-06-09T02:43:36.826Z,20.00
2018-06-09T02:46:05.595Z,20.00
2018-06-09T02:48:34.134Z,20.00
2018-06-09T02:51:02.877Z,20.00
2018-06-09T02:53:31.381Z,19.90
2018-06-09T02:56:00.076Z,19.90
2018-06-09T02:58:28.611Z,19.90
2018-06-09T03:00:57.199Z,19.90
2018-06-09T03:03:25.766Z,19.90
2018-06-09T03:05:54.393Z,19.90
2018-06-09T03:08:22.933Z,19.90
2018-06-09T03:10:51.638Z,19.90
2018-06-09T03:13:20.220Z,19.90
2018-06-09T03:15:48.762Z,19.80
2018-06-09T03:18:17.486Z,19.90
2018-06-09T03:20:46.109Z,19.90
2018-06-09T03:23:14.645Z,19.90
2018-06-09T03:25:43.151Z,19.90
2018-06-09T03:28:12.431Z,19.90
2018-06-09T03:30:40.968Z,20.00
2018-06-09T03:33:09.556Z,20.00
2018-06-09T03:35:38.231Z,19.90
2018-06-09T03:38:06.834Z,20.00
2018-06-09T03:40:35.494Z,20.00
2018-06-09T03:43:04.077Z,20.00
2018-06-09T03:45:32.677Z,20.00
2018-06-09T03:48:01.407Z,20.00
2018-06-09T03:50:30.071Z,20.10
2018-06-09T03:52:58.570Z,20.10
2018-06-09T03:55:27.218Z,20.00
2018-06-09T03:57:55.839Z,20.10
2018-06-09T04:00:24.387Z,20.10
2018-06-09T04:02:52.981Z,20.10
2018-06-09T04:05:21.691Z,20.20
2018-06-09T04:07:50.186Z,20.30
2018-06-09T04:10:18.700Z,20.40
2018-06-09T04:12:47.441Z,20.40
2018-06-09T04:15:15.946Z,20.50
2018-06-09T04:17:44.708Z,20.60
2018-06-09T04:20:13.347Z,20.60
2018-06-09T04:22:41.853Z,20.70
2018-06-09T04:25:10.677Z,20.80
2018-06-09T04:27:39.170Z,20.80
2018-06-09T04:30:07.700Z,20.90
2018-06-09T04:32:36.284Z,20.90
2018-06-09T04:35:05.114Z,21.00
2018-06-09T04:37:33.661Z,21.00
2018-06-09T04:40:02.313Z,21.00
2018-06-09T04:42:31.548Z,21.10
2018-06-09T04:45:00.237Z,21.20
2018-06-09T04:47:29.050Z,21.30
2018-06-09T04:49:57.700Z,21.30
2018-06-09T04:52:26.248Z,21.40
2018-06-09T04:54:54.971Z,21.40
2018-06-09T04:57:23.681Z,21.50
2018-06-09T04:59:52.270Z,21.70
2018-06-09T05:02:21.052Z,21.80
2018-06-09T05:04:49.838Z,21.80
2018-06-09T05:07:18.598Z,21.90
2018-06-09T05:09:47.106Z,22.00
2018-06-09T05:12:15.722Z,22.20
2018-06-09T05:14:44.972Z,22.20
2018-06-09T05:17:13.583Z,22.40
2018-06-09T05:19:42.256Z,22.40
2018-06-09T05:22:11.023Z,22.60
2018-06-09T05:24:39.833Z,22.70
2018-06-09T05:27:08.536Z,22.80
2018-06-09T05:29:37.206Z,23.00
2018-06-09T05:32:05.894Z,23.10
2018-06-09T05:34:34.392Z,23.20
2018-06-09T05:37:03.884Z,23.30
2018-06-09T05:39:32.459Z,23.60
2018-06-09T05:42:01.145Z,23.70
2018-06-09T05:44:29.941Z,23.80
2018-06-09T05:46:58.454Z,24.00
2018-06-09T05:49:27.139Z,24.10
2018-06-09T05:51:55.669Z,24.20
2018-06-09T05:54:24.225Z,24.50
2018-06-09T05:56:52.841Z,24.50
2018-06-09T05:59:21.369Z,24.80
2018-06-09T06:01:49.895Z,25.00
2018-06-09T06:04:18.522Z,25.00
2018-06-09T06:06:47.125Z,25.00
2018-06-09T06:09:15.655Z,24.90
2018-06-09T06:11:44.142Z,25.00
2018-06-09T06:14:12.680Z,24.70
2018-06-09T06:19:09.392Z,24.80
2018-06-09T06:21:37.888Z,24.80
2018-06-09T06:24:06.427Z,24.90
2018-06-09T06:26:34.970Z,25.00
2018-06-09T06:29:03.484Z,25.00
2018-06-09T06:31:32.027Z,25.10
2018-06-09T06:34:01.023Z,25.30
2018-06-09T06:36:29.514Z,25.50
2018-06-09T06:38:58.036Z,25.60
2018-06-09T06:41:26.829Z,25.70
2018-06-09T06:43:55.342Z,25.90
2018-06-09T06:46:23.943Z,26.00
2018-06-09T06:48:52.679Z,26.00
2018-06-09T06:51:21.171Z,26.00
2018-06-09T06:53:49.715Z,26.20
2018-06-09T06:58:47.068Z,26.30
2018-06-09T07:01:15.597Z,26.30
2018-06-09T07:03:44.463Z,26.50
2018-06-09T07:06:13.093Z,26.70
2018-06-09T07:08:41.631Z,26.90
2018-06-09T07:11:10.162Z,27.30
2018-06-09T07:13:38.738Z,27.50
2018-06-09T07:16:07.269Z,27.60
2018-06-09T07:18:35.808Z,27.50
2018-06-09T07:21:04.448Z,27.60
2018-06-09T07:23:33.197Z,27.70
2018-06-09T07:26:01.657Z,27.90
2018-06-09T07:28:30.242Z,28.20
2018-06-09T07:30:58.881Z,28.30
2018-06-09T07:33:27.405Z,28.10
2018-06-09T07:35:56.049Z,28.30
2018-06-09T07:38:24.957Z,28.40
2018-06-09T07:40:53.497Z,28.60
2018-06-09T07:45:50.267Z,28.80
2018-06-09T07:50:47.030Z,29.10
2018-06-09T07:53:15.607Z,29.40
2018-06-09T07:55:44.159Z,29.60
2018-06-09T07:58:12.736Z,29.70
2018-06-09T08:00:41.861Z,29.60
2018-06-09T08:03:10.694Z,30.00
2018-06-09T08:05:39.268Z,30.00
2018-06-09T08:08:07.966Z,29.90
2018-06-09T08:10:36.510Z,30.00
2018-06-09T08:13:05.045Z,30.20
2018-06-09T08:15:33.557Z,30.30
2018-06-09T08:18:02.067Z,30.20
2018-06-09T08:20:30.630Z,30.30
2018-06-09T08:22:59.349Z,30.40
2018-06-09T08:25:28.003Z,30.30
2018-06-09T08:27:56.721Z,30.10
2018-06-09T08:30:25.211Z,30.20
2018-06-09T08:32:53.719Z,30.40
2018-06-09T08:35:22.331Z,30.50
2018-06-09T08:37:50.866Z,30.60
2018-06-09T08:40:19.493Z,30.40
2018-06-09T08:42:48.263Z,30.80
2018-06-09T08:45:16.746Z,30.80
2018-06-09T08:47:45.425Z,30.80
2018-06-09T08:50:13.961Z,30.90
2018-06-09T08:52:42.742Z,31.20
2018-06-09T08:55:11.214Z,31.10
2018-06-09T08:57:39.750Z,31.00
2018-06-09T09:00:08.262Z,31.20
2018-06-09T09:02:36.825Z,31.30
2018-06-09T09:05:05.391Z,31.30
2018-06-09T09:07:33.878Z,31.30
2018-06-09T09:10:02.378Z,31.40
2018-06-09T09:12:30.873Z,31.10
2018-06-09T09:14:59.474Z,31.30
2018-06-09T09:17:28.107Z,31.50
2018-06-09T09:19:56.629Z,31.40
2018-06-09T09:22:25.339Z,31.30
2018-06-09T09:24:53.829Z,31.40
2018-06-09T09:27:22.441Z,31.30
2018-06-09T09:29:50.901Z,31.10
2018-06-09T09:32:19.535Z,31.20
2018-06-09T09:34:48.114Z,31.30
2018-06-09T09:37:18.137Z,31.40
2018-06-09T09:39:46.584Z,31.30
2018-06-09T09:42:15.135Z,31.30
2018-06-09T09:44:43.601Z,31.50
2018-06-09T09:47:12.080Z,31.60
2018-06-09T09:49:40.608Z,31.70
2018-06-09T09:52:09.621Z,31.90
2018-06-09T09:54:39.334Z,32.00
2018-06-09T09:57:07.912Z,31.90
2018-06-09T09:59:36.435Z,31.90
2018-06-09T10:02:05.151Z,32.00
2018-06-09T10:04:33.738Z,31.70
2018-06-09T10:07:02.258Z,31.90
2018-06-09T10:09:30.820Z,32.00
2018-06-09T10:12:00.036Z,31.90
2018-06-09T10:14:28.705Z,32.00
2018-06-09T10:16:57.247Z,32.00
2018-06-09T10:19:25.827Z,32.20
2018-06-09T10:21:54.562Z,31.90
2018-06-09T10:24:23.108Z,32.00
2018-06-09T10:26:51.761Z,31.90
2018-06-09T10:29:20.313Z,31.70
2018-06-09T10:34:17.638Z,31.80
2018-06-09T10:36:46.415Z,31.70
2018-06-09T10:39:15.025Z,32.00
2018-06-09T10:41:43.683Z,31.80
2018-06-09T10:44:12.250Z,31.60
2018-06-09T10:46:40.862Z,31.90
2018-06-09T10:49:09.574Z,32.00
2018-06-09T10:51:38.129Z,32.10
2018-06-09T10:54:06.702Z,31.80
2018-06-09T10:56:35.347Z,31.60
2018-06-09T11:01:32.407Z,32.20
2018-06-09T11:04:00.993Z,32.30
2018-06-09T11:08:58.040Z,32.50
2018-06-09T11:11:26.575Z,32.40
2018-06-09T11:13:55.161Z,32.50
2018-06-09T11:16:23.770Z,32.60
2018-06-09T11:18:52.409Z,32.70
2018-06-09T11:21:21.322Z,32.70
2018-06-09T11:23:49.914Z,32.80
2018-06-09T11:26:18.539Z,32.60
2018-06-09T11:28:48.200Z,32.50
2018-06-09T11:31:16.722Z,32.50
2018-06-09T11:33:45.487Z,32.60
2018-06-09T11:36:15.480Z,32.50
2018-06-09T11:38:46.067Z,32.40
2018-06-09T11:43:43.073Z,32.00
2018-06-09T11:46:11.865Z,31.90
2018-06-09T11:48:40.958Z,31.70
2018-06-09T11:51:10.157Z,31.60
2018-06-09T11:53:38.837Z,31.80
2018-06-09T11:56:07.393Z,32.00
2018-06-09T11:58:36.290Z,32.30
2018-06-09T12:01:04.899Z,32.10
2018-06-09T12:03:33.472Z,32.30
2018-06-09T12:06:02.027Z,32.30
2018-06-09T12:08:30.590Z,32.20
2018-06-09T12:10:59.208Z,32.00
2018-06-09T12:13:28.163Z,31.70
2018-06-09T12:15:57.002Z,31.40
2018-06-09T12:18:25.568Z,31.20
2018-06-09T12:20:54.092Z,31.50
2018-06-09T12:23:22.628Z,31.60
2018-06-09T12:25:51.154Z,31.80
2018-06-09T12:28:19.663Z,31.90
2018-06-09T12:30:48.156Z,32.00
2018-06-09T12:33:16.794Z,32.20
2018-06-09T12:35:45.271Z,32.50
2018-06-09T12:38:14.513Z,32.50
2018-06-09T12:40:43.398Z,32.50
2018-06-09T12:43:11.906Z,32.40
2018-06-09T12:45:40.486Z,32.60
2018-06-09T12:48:09.002Z,32.50
2018-06-09T12:50:37.523Z,32.60
2018-06-09T12:53:06.271Z,32.60
2018-06-09T12:55:35.047Z,32.70
2018-06-09T12:58:03.690Z,32.60
2018-06-09T13:00:32.942Z,32.60
2018-06-09T13:03:01.419Z,32.80
2018-06-09T13:05:29.934Z,32.70
2018-06-09T13:07:58.551Z,32.70
2018-06-09T13:10:27.367Z,32.70
2018-06-09T13:12:55.947Z,32.90
2018-06-09T13:15:24.452Z,33.00
2018-06-09T13:17:53.283Z,33.00
2018-06-09T13:20:21.856Z,32.40
2018-06-09T13:22:50.399Z,32.30
2018-06-09T13:25:19.060Z,32.30
2018-06-09T13:27:47.855Z,32.60
2018-06-09T13:30:16.549Z,32.40
2018-06-09T13:32:45.305Z,32.20
2018-06-09T13:35:13.875Z,32.20
2018-06-09T13:37:42.408Z,32.20
2018-06-09T13:40:11.180Z,32.40
2018-06-09T13:42:39.637Z,32.60
2018-06-09T13:45:08.376Z,32.70
2018-06-09T13:47:36.896Z,32.60
2018-06-09T13:50:05.441Z,32.60
2018-06-09T13:52:34.297Z,32.30
2018-06-09T13:55:02.839Z,31.90
2018-06-09T13:57:31.313Z,31.70
2018-06-09T13:59:59.965Z,31.50
2018-06-09T14:02:28.503Z,31.50
2018-06-09T14:07:25.364Z,31.20
2018-06-09T14:09:53.899Z,31.20
2018-06-09T14:12:22.418Z,31.40
2018-06-09T14:14:51.093Z,31.20
2018-06-09T14:17:19.941Z,31.30
2018-06-09T14:19:48.467Z,31.60
2018-06-09T14:22:17.189Z,31.60
2018-06-09T14:24:45.787Z,31.70
2018-06-09T14:27:14.600Z,31.40
2018-06-09T14:29:43.114Z,31.30
2018-06-09T14:32:11.606Z,31.20
2018-06-09T14:34:40.119Z,31.20
2018-06-09T14:37:08.599Z,31.20
2018-06-09T14:39:37.130Z,31.30
2018-06-09T14:44:34.079Z,31.30
2018-06-09T14:47:02.575Z,31.40
2018-06-09T14:49:31.111Z,31.30
2018-06-09T14:51:59.627Z,31.10
2018-06-09T14:54:28.127Z,31.30
2018-06-09T14:56:56.900Z,31.20
2018-06-09T14:59:25.555Z,31.10
2018-06-09T15:01:54.031Z,31.20
2018-06-09T15:04:22.546Z,31.30
2018-06-09T15:06:51.016Z,31.40
2018-06-09T15:11:47.741Z,31.20
2018-06-09T15:14:16.333Z,31.00
2018-06-09T15:16:45.093Z,30.90
2018-06-09T15:19:13.674Z,30.90
2018-06-09T15:21:42.402Z,30.90
2018-06-09T15:24:10.918Z,30.70
2018-06-09T15:26:39.813Z,30.80
2018-06-09T15:29:08.518Z,30.80
2018-06-09T15:31:37.130Z,30.80
2018-06-09T15:34:05.888Z,30.70
2018-06-09T15:36:34.524Z,30.50
2018-06-09T15:39:03.191Z,30.50
2018-06-09T15:41:31.722Z,30.50
2018-06-09T15:44:00.211Z,30.40
2018-06-09T15:46:28.741Z,30.40
2018-06-09T15:48:57.307Z,30.40
2018-06-09T15:51:25.782Z,30.40
2018-06-09T15:53:54.323Z,30.30
2018-06-09T15:56:23.137Z,30.20
2018-06-09T15:58:51.629Z,30.20
2018-06-09T16:01:20.119Z,30.10
2018-06-09T16:03:48.621Z,30.10
2018-06-09T16:06:17.155Z,30.10
2018-06-09T16:08:45.847Z,30.10
2018-06-09T16:11:14.414Z,30.10
2018-06-09T16:13:42.981Z,30.10
2018-06-09T16:16:11.901Z,30.10
2018-06-09T16:18:40.486Z,30.10
2018-06-09T16:21:08.984Z,29.80
2018-06-09T16:23:37.445Z,29.50
2018-06-09T16:26:06.315Z,29.20
2018-06-09T16:28:35.122Z,28.90
2018-06-09T16:31:03.745Z,28.70
2018-06-09T16:33:32.263Z,28.60
2018-06-09T16:36:00.857Z,28.50
2018-06-09T16:38:29.542Z,28.50
2018-06-09T16:40:58.154Z,28.50
2018-06-09T16:43:26.598Z,28.30
2018-06-09T16:45:55.055Z,28.20
2018-06-09T16:48:23.634Z,27.90
2018-06-09T16:50:52.110Z,27.70
2018-06-09T16:53:20.620Z,27.60
2018-06-09T16:55:49.241Z,27.40
2018-06-09T16:58:18.026Z,27.40
2018-06-09T17:00:46.574Z,27.30
2018-06-09T17:03:15.034Z,27.30
2018-06-09T17:05:43.522Z,27.20
2018-06-09T17:08:12.246Z,27.10
2018-06-09T17:10:41.123Z,27.00
2018-06-09T17:13:10.151Z,27.00
2018-06-09T17:15:38.706Z,26.90
2018-06-09T17:18:07.219Z,26.60
2018-06-09T17:20:35.710Z,26.40
2018-06-09T17:23:04.242Z,26.30
2018-06-09T17:25:32.703Z,26.30
2018-06-09T17:28:01.627Z,26.30
2018-06-09T17:30:30.313Z,26.40
2018-06-09T17:32:58.906Z,26.40
2018-06-09T17:35:27.539Z,26.40
2018-06-09T17:37:56.203Z,26.40
2018-06-09T17:40:24.928Z,26.40
2018-06-09T17:42:53.437Z,26.40
2018-06-09T17:45:21.936Z,26.40
2018-06-09T17:47:50.522Z,26.40
2018-06-09T17:50:19.031Z,26.40
2018-06-09T17:52:47.606Z,26.40
2018-06-09T17:55:16.166Z,26.30
2018-06-09T17:57:44.961Z,26.20
2018-06-09T18:00:13.432Z,26.20
2018-06-09T18:02:41.967Z,26.10
2018-06-09T18:05:10.473Z,26.00
2018-06-09T18:07:38.925Z,25.90
2018-06-09T18:10:07.463Z,25.90
2018-06-09T18:12:36.017Z,25.80
2018-06-09T18:15:04.641Z,25.80
2018-06-09T18:17:33.289Z,25.80
2018-06-09T18:20:01.955Z,25.80
2018-06-09T18:22:30.409Z,25.80
2018-06-09T18:27:27.202Z,25.70
2018-06-09T18:29:56.036Z,25.50
2018-06-09T18:32:24.541Z,25.40
2018-06-09T18:34:53.162Z,25.30
2018-06-09T18:37:21.621Z,25.10
2018-06-09T18:39:50.134Z,25.00
2018-06-09T18:42:18.606Z,24.90
2018-06-09T18:44:47.120Z,24.80
2018-06-09T18:47:15.773Z,24.80
2018-06-09T18:49:44.443Z,24.90
2018-06-09T18:52:13.047Z,24.80
2018-06-09T18:54:41.752Z,24.80
2018-06-09T18:57:10.552Z,24.70
2018-06-09T18:59:39.202Z,24.60
2018-06-09T19:02:07.787Z,24.60
2018-06-09T19:04:36.282Z,24.70
2018-06-09T19:07:04.907Z,24.60
2018-06-09T19:09:33.441Z,24.60
2018-06-09T19:12:02.042Z,24.50
2018-06-09T19:14:30.648Z,24.40
2018-06-09T19:16:59.302Z,24.30
2018-06-09T19:19:27.867Z,24.30
2018-06-09T19:21:56.619Z,24.30
2018-06-09T19:24:25.335Z,24.20
2018-06-09T19:26:53.887Z,24.10
2018-06-09T19:29:22.378Z,24.00
2018-06-09T19:31:50.931Z,24.00
2018-06-09T19:34:19.511Z,23.90
2018-06-09T19:36:48.074Z,23.80
2018-06-09T19:39:16.705Z,23.70
2018-06-09T19:41:45.339Z,23.70
2018-06-09T19:44:14.060Z,23.60
2018-06-09T19:46:42.668Z,23.60
2018-06-09T19:49:11.462Z,23.60
2018-06-09T19:51:41.666Z,23.50
2018-06-09T19:54:11.011Z,23.50
2018-06-09T19:56:39.704Z,23.50
2018-06-09T19:59:08.468Z,23.60
2018-06-09T20:01:37.123Z,23.50
2018-06-09T20:04:05.940Z,23.40
2018-06-09T20:06:34.554Z,23.30
2018-06-09T20:09:03.416Z,23.30
2018-06-09T20:11:31.937Z,23.30
2018-06-09T20:14:00.621Z,23.20
2018-06-09T20:16:29.368Z,23.20
2018-06-09T20:18:58.084Z,23.10
2018-06-09T20:21:26.805Z,23.00
2018-06-09T20:26:23.727Z,23.00
2018-06-09T20:28:52.336Z,23.00
2018-06-09T20:31:20.943Z,23.00
2018-06-09T20:33:49.490Z,23.00
2018-06-09T20:36:18.264Z,23.00
2018-06-09T20:38:46.891Z,22.90
2018-06-09T20:41:15.711Z,23.00
2018-06-09T20:43:44.502Z,23.00
2018-06-09T20:46:13.286Z,22.90
2018-06-09T20:48:43.468Z,22.80
2018-06-09T20:51:12.297Z,22.80
2018-06-09T20:53:41.113Z,22.70
2018-06-09T20:56:11.701Z,22.60
2018-06-09T20:58:41.650Z,22.60
2018-06-09T21:01:10.382Z,22.60
2018-06-09T21:03:39.068Z,22.40
2018-06-09T21:06:07.611Z,22.40
2018-06-09T21:08:36.112Z,22.30
2018-06-09T21:11:04.964Z,22.30
2018-06-09T21:13:33.711Z,22.30
2018-06-09T21:16:02.268Z,22.30
2018-06-09T21:18:30.881Z,22.30
2018-06-09T21:20:59.491Z,22.30
2018-06-09T21:23:28.993Z,22.40
2018-06-09T21:25:57.553Z,22.30
2018-06-09T21:28:27.831Z,22.30
2018-06-09T21:31:01.401Z,22.20
2018-06-09T21:33:46.827Z,22.10
2018-06-09T21:36:19.822Z,22.10
2018-06-09T21:38:53.859Z,22.10
2018-06-09T21:41:22.530Z,22.20
2018-06-09T21:43:56.710Z,22.20
2018-06-09T21:46:30.659Z,22.10
2018-06-09T21:48:59.208Z,22.10
2018-06-09T21:51:28.050Z,22.10
2018-06-09T21:53:57.115Z,21.90
2018-06-09T21:56:25.769Z,21.90
2018-06-09T21:58:54.994Z,21.90
2018-06-09T22:01:23.556Z,21.90
2018-06-09T22:03:52.096Z,21.90
2018-06-09T22:06:20.729Z,21.90
2018-06-09T22:08:49.330Z,21.90
2018-06-09T22:11:18.071Z,21.90
2018-06-09T22:13:46.729Z,21.90
2018-06-09T22:16:15.330Z,21.80
2018-06-09T22:18:43.896Z,21.80
2018-06-09T22:21:12.532Z,21.80
2018-06-09T22:23:41.026Z,21.70
2018-06-09T22:26:11.349Z,21.70
2018-06-09T22:28:40.034Z,21.70
2018-06-09T22:31:08.862Z,21.70
2018-06-09T22:33:37.364Z,21.60
2018-06-09T22:36:05.865Z,21.60
2018-06-09T22:38:34.490Z,21.60
2018-06-09T22:41:03.078Z,21.60
2018-06-09T22:43:31.658Z,21.60
2018-06-09T22:46:00.181Z,21.60
2018-06-09T22:48:28.703Z,21.60
2018-06-09T22:50:57.452Z,21.60
2018-06-09T22:53:25.949Z,21.60
2018-06-09T22:55:54.456Z,21.50
2018-06-09T22:58:23.012Z,21.40
2018-06-09T23:00:52.039Z,21.40
2018-06-09T23:03:20.486Z,21.50
2018-06-09T23:05:48.973Z,21.50
2018-06-09T23:08:17.484Z,21.40
2018-06-09T23:10:46.082Z,21.40
2018-06-09T23:13:15.799Z,21.40
2018-06-09T23:15:44.269Z,21.40
2018-06-09T23:18:12.917Z,21.40
2018-06-09T23:20:41.550Z,21.30
2018-06-09T23:23:10.067Z,21.30
2018-06-09T23:25:38.529Z,21.30
2018-06-09T23:28:07.280Z,21.20
2018-06-09T23:30:35.782Z,21.30
2018-06-09T23:33:04.268Z,21.20
2018-06-09T23:35:32.808Z,21.20
2018-06-09T23:38:01.288Z,21.20
2018-06-09T23:40:29.916Z,21.20
2018-06-09T23:42:58.355Z,21.20
2018-06-09T23:45:26.818Z,21.20
2018-06-09T23:47:55.333Z,21.20
2018-06-09T23:50:23.793Z,21.20
2018-06-09T23:52:52.338Z,21.10
2018-06-09T23:55:20.956Z,21.10
2018-06-09T23:57:49.660Z,21.00
